Time;durP1;ratioP1;P1;durP2;ratioP2;P2;SDS_P1;SDS_P2;PMS_P1;PMS_P2;Temp;Humidity;BMP_temperature;BMP_pressure;BME280_temperature;BME280_humidity;BME280_pressure;Samples;Min_cycle;Max_cycle;Signal;HPM_P1;HPM_P2
2021/11/23 00:00:37;;;;;;;14.98;11.43;;;;;;;6.14;78.87;96415.34;5094890;28;20020;-64
2021/11/23 00:03:04;;;;;;;13.75;10.75;;;;;;;6.15;78.02;96424.00;5094840;28;20028;-66
2021/11/23 00:05:30;;;;;;;17.30;10.93;;;;;;;6.07;77.73;96421.56;5094792;28;20025;-68
2021/11/23 00:07:56;;;;;;;16.75;10.35;;;;;;;5.97;78.24;96413.09;5094788;28;20027;-61
2021/11/23 00:10:21;;;;;;;16.70;12.40;;;;;;;5.90;78.56;96417.56;5094647;28;20449;-68
2021/11/23 00:12:47;;;;;;;15.90;11.88;;;;;;;5.88;78.96;96419.34;5094645;28;20024;-68
2021/11/23 00:15:13;;;;;;;11.68;9.82;;;;;;;5.86;78.60;96417.66;5094144;28;20024;-65
2021/11/23 00:17:39;;;;;;;11.73;10.00;;;;;;;5.85;78.38;96423.75;5094732;28;20123;-69
2021/11/23 00:20:05;;;;;;;13.48;10.02;;;;;;;5.85;78.17;96415.94;5094417;28;20086;-66
2021/11/23 00:22:32;;;;;;;14.63;9.23;;;;;;;5.75;78.36;96407.50;5094345;28;20391;-65
2021/11/23 00:24:59;;;;;;;15.85;10.50;;;;;;;5.71;78.78;96414.50;5094416;28;20429;-65
2021/11/23 00:27:25;;;;;;;17.63;10.35;;;;;;;5.71;78.83;96422.28;5094431;28;20020;-65
2021/11/23 00:29:52;;;;;;;12.30;9.50;;;;;;;5.71;79.49;96419.69;5094254;28;20023;-65
2021/11/23 00:32:18;;;;;;;14.50;10.27;;;;;;;5.68;79.49;96420.63;5094266;28;20024;-67
2021/11/23 00:34:47;;;;;;;13.93;9.80;;;;;;;5.71;80.35;96422.28;5094332;28;20435;-66
2021/11/23 00:37:13;;;;;;;14.43;10.40;;;;;;;5.76;79.89;96424.78;5094295;28;20032;-64
2021/11/23 00:39:39;;;;;;;14.65;11.77;;;;;;;5.79;82.27;96429.91;5094149;28;20374;-63
2021/11/23 00:42:05;;;;;;;20.20;12.73;;;;;;;5.85;82.05;96427.19;5094119;28;20031;-64
2021/11/23 00:44:31;;;;;;;16.58;11.07;;;;;;;5.91;82.10;96431.41;5094026;28;20363;-66
2021/11/23 00:46:58;;;;;;;14.65;11.18;;;;;;;5.96;81.35;96431.31;5093942;28;20081;-69
2021/11/23 00:49:24;;;;;;;15.27;11.93;;;;;;;5.94;81.92;96428.75;5094023;28;20016;-67
2021/11/23 00:51:50;;;;;;;14.90;11.52;;;;;;;6.02;82.09;96431.19;5093809;28;20169;-67
2021/11/23 00:54:17;;;;;;;15.73;11.60;;;;;;;6.05;81.96;96425.97;5093929;28;20043;-63
2021/11/23 00:56:44;;;;;;;16.33;11.60;;;;;;;6.07;82.28;96427.63;5093834;28;20016;-64
2021/11/23 00:59:10;;;;;;;11.45;9.13;;;;;;;6.16;82.13;96421.38;5093721;28;20024;-64
2021/11/23 01:01:35;;;;;;;11.02;9.75;;;;;;;6.20;81.06;96422.13;5093739;28;20024;-63
2021/11/23 01:04:01;;;;;;;11.50;9.25;;;;;;;6.23;80.81;96429.03;5093777;28;20466;-64
2021/11/23 01:06:27;;;;;;;13.43;10.00;;;;;;;6.25;80.07;96435.91;5093683;28;20035;-67
2021/11/23 01:08:53;;;;;;;15.18;9.55;;;;;;;6.28;79.51;96419.38;5093771;28;20020;-65
2021/11/23 01:11:19;;;;;;;13.02;10.73;;;;;;;6.23;79.29;96424.66;5093585;28;20176;-64
2021/11/23 01:13:47;;;;;;;13.70;10.35;;;;;;;6.16;80.34;96421.38;5093589;28;20034;-61
2021/11/23 01:16:13;;;;;;;12.85;9.80;;;;;;;6.16;79.90;96415.31;5093572;28;20020;-62
2021/11/23 01:18:38;;;;;;;13.55;9.52;;;;;;;6.15;79.94;96409.28;5093485;28;20073;-64
2021/11/23 01:21:05;;;;;;;12.70;9.77;;;;;;;6.12;79.94;96414.53;5093378;28;20439;-66
2021/11/23 01:23:32;;;;;;;13.88;9.55;;;;;;;6.15;80.05;96408.41;5093570;28;20054;-64
2021/11/23 01:25:58;;;;;;;16.35;10.95;;;;;;;6.06;80.61;96409.47;5093083;28;20020;-66
2021/11/23 01:28:25;;;;;;;14.73;10.27;;;;;;;6.02;81.12;96403.47;5092890;28;20178;-68
2021/11/23 01:30:51;;;;;;;13.23;11.15;;;;;;;6.01;81.45;96406.94;5093273;28;20074;-66
2021/11/23 01:33:18;;;;;;;15.23;11.05;;;;;;;6.02;81.39;96406.06;5093358;28;20020;-65
2021/11/23 01:35:45;;;;;;;15.65;12.05;;;;;;;6.01;81.23;96396.56;5093311;28;20026;-69
2021/11/23 01:38:12;;;;;;;16.00;12.82;;;;;;;5.99;82.00;96407.88;5093358;28;20028;-63
2021/11/23 01:40:40;;;;;;;14.68;11.43;;;;;;;5.99;82.52;96402.69;5093187;28;20026;-67
2021/11/23 01:43:06;;;;;;;14.30;11.15;;;;;;;6.03;82.08;96405.19;5093135;28;20016;-66
2021/11/23 01:45:34;;;;;;;13.68;10.43;;;;;;;6.09;81.37;96411.16;5093114;28;20028;-64
2021/11/23 01:48:00;;;;;;;13.68;10.88;;;;;;;6.11;81.13;96399.00;5093138;28;20379;-65
2021/11/23 01:50:26;;;;;;;15.82;10.93;;;;;;;6.16;80.75;96412.72;5093035;28;20039;-66
2021/11/23 01:52:52;;;;;;;17.10;12.00;;;;;;;6.18;80.51;96406.59;5093141;28;20424;-64
2021/11/23 01:55:18;;;;;;;25.08;12.85;;;;;;;6.22;80.50;96406.53;5093074;28;20037;-66
2021/11/23 01:57:44;;;;;;;13.75;11.32;;;;;;;6.15;80.44;96404.09;5093015;28;20020;-63
2021/11/23 02:00:11;;;;;;;12.40;10.00;;;;;;;6.15;80.10;96404.09;5093093;28;20038;-66
2021/11/23 02:02:37;;;;;;;13.70;10.75;;;;;;;6.12;80.47;96400.69;5092813;28;20123;-69
2021/11/23 02:05:04;;;;;;;14.13;11.90;;;;;;;6.08;81.78;96402.50;5092986;28;20055;-66
2021/11/23 02:07:30;;;;;;;20.85;12.43;;;;;;;6.08;82.71;96405.09;5092966;28;20619;-68
2021/11/23 02:09:56;;;;;;;18.98;11.73;;;;;;;6.07;82.27;96403.38;5092835;28;20047;-66
2021/11/23 02:12:23;;;;;;;15.60;11.75;;;;;;;6.13;82.24;96405.84;5092973;28;20071;-66
2021/11/23 02:14:50;;;;;;;15.65;11.80;;;;;;;6.15;81.57;96411.88;5092897;28;20020;-64
2021/11/23 02:17:15;;;;;;;12.85;10.13;;;;;;;6.16;81.25;96410.13;5092872;28;20032;-61
2021/11/23 02:20:07;;;;;;;13.18;10.88;;;;;;;6.16;80.71;96407.53;5092628;28;20067;-66
2021/11/23 02:22:33;;;;;;;14.70;10.75;;;;;;;6.17;80.35;96398.84;5092849;28;20108;-66
2021/11/23 02:24:59;;;;;;;14.40;11.10;;;;;;;6.17;80.45;96399.69;5092703;28;20025;-65
2021/11/23 02:27:26;;;;;;;15.07;10.50;;;;;;;6.20;80.30;96401.34;5092964;28;20020;-67
2021/11/23 02:29:55;;;;;;;17.15;11.27;;;;;;;6.14;80.42;96396.34;5092730;28;20120;-68
2021/11/23 02:32:21;;;;;;;17.05;11.45;;;;;;;6.17;80.01;96409.25;5092752;28;20046;-68
2021/11/23 02:34:47;;;;;;;20.25;11.70;;;;;;;6.17;80.09;96406.66;5092831;28;20466;-65
2021/11/23 02:37:12;;;;;;;17.80;11.23;;;;;;;6.19;79.80;96404.84;5092727;28;20016;-62
2021/11/23 02:39:39;;;;;;;13.43;11.18;;;;;;;6.20;79.90;96398.75;5096121;28;20378;-64
2021/11/23 02:42:05;;;;;;;16.10;12.48;;;;;;;6.23;80.28;96392.66;5096438;28;20020;-65
2021/11/23 02:44:39;;;;;;;15.88;11.50;;;;;;;6.24;80.49;96405.63;5096330;28;20028;-65
2021/11/23 02:47:06;;;;;;;16.63;12.32;;;;;;;6.14;80.91;96406.72;5096434;28;20028;-66
2021/11/23 02:49:31;;;;;;;14.07;11.82;;;;;;;6.11;81.72;96404.19;5096265;28;20051;-66
2021/11/23 02:51:58;;;;;;;17.17;12.82;;;;;;;6.14;81.94;96409.31;5096315;28;20474;-66
2021/11/23 02:54:24;;;;;;;14.90;11.65;;;;;;;6.17;81.45;96411.84;5096282;28;20111;-63
2021/11/23 02:56:50;;;;;;;14.63;10.98;;;;;;;6.20;80.99;96414.34;5096222;28;20106;-64
2021/11/23 02:59:16;;;;;;;14.13;10.32;;;;;;;6.21;81.08;96410.03;5096092;28;20020;-63
2021/11/23 03:01:41;;;;;;;15.65;10.50;;;;;;;6.18;80.75;96414.38;5096084;28;20541;-62
2021/11/23 03:04:07;;;;;;;11.90;10.38;;;;;;;6.16;80.63;96415.31;5096074;28;20024;-66
2021/11/23 03:06:33;;;;;;;13.05;10.25;;;;;;;6.14;81.21;96411.91;5095970;28;20020;-65
2021/11/23 03:08:58;;;;;;;15.48;10.88;;;;;;;6.11;81.93;96415.41;5095930;28;20413;-62
2021/11/23 03:11:24;;;;;;;14.77;11.63;;;;;;;6.11;82.01;96414.56;5095892;28;20057;-64
2021/11/23 03:13:51;;;;;;;13.20;11.18;;;;;;;6.11;81.91;96410.22;5095837;28;20082;-66
2021/11/23 03:16:17;;;;;;;12.38;10.35;;;;;;;6.14;81.80;96410.16;5095809;28;20363;-64
2021/11/23 03:18:43;;;;;;;13.50;10.25;;;;;;;6.14;81.79;96404.13;5095726;28;20082;-67
2021/11/23 03:21:09;;;;;;;13.63;11.40;;;;;;;6.18;82.04;96409.19;5095528;28;20071;-64
2021/11/23 03:23:34;;;;;;;11.98;10.05;;;;;;;6.24;81.96;96403.03;5095586;28;20023;-68
2021/11/23 03:26:00;;;;;;;15.07;11.20;;;;;;;6.26;81.82;96408.19;5095728;28;20427;-64
2021/11/23 03:28:26;;;;;;;13.57;10.77;;;;;;;6.23;81.64;96408.25;5095672;28;20017;-67
2021/11/23 03:30:52;;;;;;;17.33;12.18;;;;;;;6.14;82.30;96398.94;5095435;28;20431;-64
2021/11/23 03:33:19;;;;;;;15.48;12.15;;;;;;;6.08;83.13;96402.50;5095477;28;20028;-64
2021/11/23 03:35:45;;;;;;;15.07;11.85;;;;;;;6.11;82.84;96404.19;5095432;28;20103;-66
2021/11/23 03:38:13;;;;;;;13.15;10.90;;;;;;;6.18;82.30;96390.16;5095428;28;20028;-61
2021/11/23 03:40:41;;;;;;;14.65;11.07;;;;;;;6.24;82.03;96394.38;5095340;28;20058;-64
2021/11/23 03:43:09;;;;;;;14.10;10.57;;;;;;;6.29;81.94;96392.53;5095223;28;20462;-67
2021/11/23 03:45:35;;;;;;;14.38;11.50;;;;;;;6.31;81.70;96407.19;5095211;28;20032;-63
2021/11/23 03:48:01;;;;;;;14.10;11.45;;;;;;;6.36;82.08;96406.22;5095189;28;20024;-66
2021/11/23 03:50:28;;;;;;;15.48;11.48;;;;;;;6.34;81.98;96401.06;5094126;28;20020;-66
2021/11/23 03:52:58;;;;;;;14.02;11.15;;;;;;;6.29;81.55;96408.94;5095247;28;20032;-64
2021/11/23 03:55:25;;;;;;;15.57;10.23;;;;;;;6.33;80.98;96407.16;5095058;28;20035;-65
2021/11/23 03:57:52;;;;;;;16.40;11.60;;;;;;;6.30;81.18;96407.22;5094955;28;20386;-65
2021/11/23 04:00:20;;;;;;;14.82;11.20;;;;;;;6.29;81.30;96406.34;5094848;28;20020;-64
2021/11/23 04:02:48;;;;;;;15.73;11.13;;;;;;;6.30;81.27;96402.03;5094948;28;20021;-68
2021/11/23 04:05:14;;;;;;;11.90;9.43;;;;;;;6.28;80.83;96406.38;5094952;28;20427;-67
2021/11/23 04:07:40;;;;;;;10.68;9.38;;;;;;;6.24;80.53;96408.22;5094879;28;20078;-64
2021/11/23 04:10:11;;;;;;;11.90;9.50;;;;;;;6.24;79.93;96416.00;5094793;28;20020;-63
2021/11/23 04:12:37;;;;;;;;;;;;;;;6.08;80.20;96412.88;5095315;28;20032;-63
2021/11/23 04:15:05;;;;;;;13.25;10.32;;;;;;;6.00;80.48;96414.78;5094831;28;19931;-63
2021/11/23 04:17:31;;;;;;;13.40;10.25;;;;;;;6.03;80.55;96420.75;5094616;28;20397;-63
2021/11/23 04:19:57;;;;;;;15.90;10.60;;;;;;;6.05;80.36;96419.00;5094335;28;20440;-65
2021/11/23 04:22:23;;;;;;;18.27;11.15;;;;;;;6.04;80.43;96421.63;5094471;28;20024;-64
2021/11/23 04:24:51;;;;;;;15.90;11.48;;;;;;;5.96;81.07;96423.53;5094480;28;20020;-65
2021/11/23 04:27:16;;;;;;;17.38;11.93;;;;;;;5.93;80.89;96414.91;5094595;28;20477;-62
2021/11/23 04:29:42;;;;;;;18.73;12.50;;;;;;;5.97;81.24;96420.91;5094387;28;20016;-68
2021/11/23 04:32:08;;;;;;;16.23;12.68;;;;;;;5.92;81.65;96423.59;5094343;28;20024;-68
2021/11/23 04:34:34;;;;;;;14.63;11.10;;;;;;;6.00;81.45;96428.63;5094256;28;20032;-65
2021/11/23 04:36:59;;;;;;;18.42;13.60;;;;;;;6.01;81.13;96427.72;5094250;28;20020;-64
2021/11/23 04:39:25;;;;;;;18.75;15.43;;;;;;;6.02;81.53;96426.81;5094134;28;20024;-66
2021/11/23 04:41:51;;;;;;;17.83;12.18;;;;;;;5.99;81.31;96436.44;5094241;28;20036;-64
2021/11/23 04:44:16;;;;;;;20.05;15.23;;;;;;;6.02;81.34;96432.03;5094067;28;20103;-63
2021/11/23 04:46:42;;;;;;;19.00;13.23;;;;;;;5.99;81.55;96429.50;5094030;28;20027;-63
2021/11/23 04:49:08;;;;;;;20.38;14.63;;;;;;;6.04;81.29;96435.47;5094050;28;20024;-66
2021/11/23 04:51:34;;;;;;;17.13;13.90;;;;;;;6.04;81.24;96443.28;5093944;28;20081;-64
2021/11/23 04:54:00;;;;;;;24.67;15.90;;;;;;;6.05;81.71;96439.78;5094012;28;20032;-64
2021/11/23 04:56:26;;;;;;;23.35;16.88;;;;;;;6.04;82.20;96445.88;5093893;28;20028;-67
2021/11/23 04:58:52;;;;;;;19.60;14.75;;;;;;;6.02;82.67;96442.41;5093865;28;20019;-63
2021/11/23 05:01:17;;;;;;;19.60;14.52;;;;;;;6.04;82.79;96440.69;5093628;28;20021;-63
2021/11/23 05:03:43;;;;;;;18.27;14.18;;;;;;;6.07;83.01;96445.81;5093733;28;20020;-63
2021/11/23 05:06:08;;;;;;;17.50;13.15;;;;;;;6.02;83.40;96437.22;5093806;28;20034;-66
2021/11/23 05:08:34;;;;;;;17.73;12.80;;;;;;;6.06;83.22;96436.28;5093654;28;20020;-67
2021/11/23 05:11:00;;;;;;;16.10;13.32;;;;;;;6.10;83.15;96431.91;5093517;28;20038;-65
2021/11/23 05:13:26;;;;;;;16.98;13.13;;;;;;;6.18;83.29;96442.13;5093604;28;20354;-63
2021/11/23 05:15:51;;;;;;;22.52;15.98;;;;;;;6.24;83.02;96446.31;5093602;28;20473;-67
2021/11/23 05:18:17;;;;;;;18.90;14.32;;;;;;;6.28;83.28;96451.41;5093437;28;20165;-67
2021/11/23 05:20:42;;;;;;;21.10;14.95;;;;;;;6.32;83.28;96442.66;5093383;28;20101;-67
2021/11/23 05:23:08;;;;;;;21.05;15.70;;;;;;;6.38;83.66;96446.84;5093549;28;20106;-63
2021/11/23 05:25:33;;;;;;;22.63;16.80;;;;;;;6.48;83.89;96449.25;5093472;28;20039;-64
2021/11/23 05:27:59;;;;;;;20.05;14.65;;;;;;;6.53;83.38;96444.81;5093335;28;20020;-68
2021/11/23 05:30:25;;;;;;;20.63;13.88;;;;;;;6.55;83.19;96450.81;5093319;28;20035;-66
2021/11/23 05:32:52;;;;;;;18.90;14.27;;;;;;;6.59;82.89;96449.84;5093362;28;20032;-67
2021/11/23 05:35:18;;;;;;;21.00;12.73;;;;;;;6.57;82.26;96449.88;5093295;28;20111;-67
2021/11/23 05:37:44;;;;;;;26.08;13.57;;;;;;;6.57;82.07;96455.06;5093381;28;20074;-65
2021/11/23 05:40:10;;;;;;;20.35;15.00;;;;;;;6.64;81.51;96454.94;5093136;28;20024;-67
2021/11/23 05:42:36;;;;;;;20.83;13.90;;;;;;;6.63;81.35;96459.31;5093223;28;20024;-68
2021/11/23 05:45:03;;;;;;;19.48;13.35;;;;;;;6.68;80.94;96462.63;5093213;28;20501;-64
2021/11/23 05:47:29;;;;;;;16.40;12.50;;;;;;;6.72;80.68;96470.38;5093092;28;20016;-62
2021/11/23 05:49:55;;;;;;;23.77;12.73;;;;;;;6.74;80.58;96469.44;5093051;28;20085;-67
2021/11/23 05:52:20;;;;;;;18.08;13.60;;;;;;;6.62;80.50;96459.34;5093150;28;20035;-65
2021/11/23 05:54:46;;;;;;;25.92;14.52;;;;;;;6.67;80.79;96473.06;5093214;28;20020;-65
2021/11/23 05:57:15;;;;;;;17.20;12.85;;;;;;;6.69;80.82;96479.94;5093096;28;20505;-67
2021/11/23 05:59:40;;;;;;;16.35;11.40;;;;;;;6.77;80.92;96477.16;5092956;28;20474;-66
2021/11/23 06:02:07;;;;;;;16.63;12.32;;;;;;;6.81;81.43;96477.94;5093048;28;20028;-65
2021/11/23 06:04:32;;;;;;;16.20;11.85;;;;;;;6.83;81.57;96478.75;5092949;28;20478;-64
2021/11/23 06:06:58;;;;;;;17.75;13.18;;;;;;;6.85;81.81;96486.50;5093006;28;20031;-66
2021/11/23 06:09:24;;;;;;;17.60;12.35;;;;;;;6.86;82.25;96480.44;5092963;28;20042;-65
2021/11/23 06:11:49;;;;;;;16.20;12.40;;;;;;;6.89;82.64;96485.56;5092779;28;20035;-64
2021/11/23 06:14:15;;;;;;;13.68;11.57;;;;;;;6.95;82.79;96485.41;5096058;28;20036;-64
2021/11/23 06:16:45;;;;;;;17.55;11.15;;;;;;;6.99;82.56;96489.66;5096992;28;20111;-65
2021/11/23 06:19:11;;;;;;;15.13;11.32;;;;;;;7.10;82.50;96491.13;5096938;28;20032;-67
2021/11/23 06:21:37;;;;;;;16.65;10.93;;;;;;;7.19;82.38;96485.69;5096670;28;20044;-62
2021/11/23 06:24:03;;;;;;;12.93;10.95;;;;;;;7.30;82.27;96496.69;5096798;28;20057;-65
2021/11/23 06:26:30;;;;;;;15.15;10.40;;;;;;;7.40;81.55;96499.03;5096769;28;20516;-68
2021/11/23 06:28:56;;;;;;;12.05;10.20;;;;;;;7.49;81.43;96497.97;5096717;28;20085;-64
2021/11/23 06:31:22;;;;;;;16.23;11.70;;;;;;;7.56;81.07;96502.94;5096695;28;20024;-62
2021/11/23 06:33:48;;;;;;;12.68;10.35;;;;;;;7.67;80.84;96501.81;5096681;28;20107;-63
2021/11/23 06:36:13;;;;;;;14.18;10.55;;;;;;;7.74;80.90;96505.13;5096537;28;20436;-66
2021/11/23 06:38:39;;;;;;;13.25;11.05;;;;;;;7.81;80.71;96510.13;5096450;28;20016;-64
2021/11/23 06:41:05;;;;;;;18.40;11.32;;;;;;;7.88;80.43;96513.38;5096507;28;20046;-65
2021/11/23 06:43:30;;;;;;;18.65;12.98;;;;;;;7.99;80.33;96512.22;5096593;28;20016;-67
2021/11/23 06:45:56;;;;;;;16.88;12.27;;;;;;;8.11;80.16;96514.50;5096390;28;20380;-65
2021/11/23 06:48:22;;;;;;;20.73;12.80;;;;;;;8.27;80.12;96514.91;5096504;28;20066;-65
2021/11/23 06:50:48;;;;;;;31.05;15.00;;;;;;;8.36;79.98;96516.38;5096212;28;20024;-68
2021/11/23 06:53:13;;;;;;;15.73;11.02;;;;;;;8.42;79.70;96518.81;5096226;28;20023;-66
2021/11/23 06:55:40;;;;;;;19.42;11.50;;;;;;;8.51;80.04;96517.69;5096244;28;20024;-63
2021/11/23 06:58:06;;;;;;;25.38;11.85;;;;;;;8.57;79.97;96525.38;5096182;28;20024;-66
2021/11/23 07:00:32;;;;;;;21.95;13.80;;;;;;;8.63;79.54;96521.72;5096056;28;20106;-68
2021/11/23 07:02:58;;;;;;;13.07;10.23;;;;;;;8.72;79.59;96528.41;5095980;28;20027;-64
2021/11/23 07:05:25;;;;;;;15.55;10.23;;;;;;;8.77;78.93;96525.66;5096076;28;20022;-67
2021/11/23 07:07:50;;;;;;;13.73;9.88;;;;;;;8.84;79.04;96527.16;5096109;28;20481;-65
2021/11/23 07:10:16;;;;;;;12.85;8.93;;;;;;;8.91;79.14;96533.88;5094557;28;20035;-67
2021/11/23 07:12:42;;;;;;;12.65;9.70;;;;;;;8.98;79.01;96534.56;5095891;28;20031;-64
2021/11/23 07:15:09;;;;;;;12.77;10.55;;;;;;;9.03;79.15;96544.84;5095811;28;20028;-66
2021/11/23 07:17:35;;;;;;;12.45;10.50;;;;;;;9.10;79.30;96547.19;5095803;28;20396;-63
2021/11/23 07:20:01;;;;;;;16.58;11.90;;;;;;;9.18;79.55;96551.34;5095428;28;20060;-65
2021/11/23 07:22:27;;;;;;;15.43;13.30;;;;;;;9.14;79.89;96549.72;5095713;28;20024;-67
2021/11/23 07:24:53;;;;;;;19.63;15.63;;;;;;;9.24;79.64;96556.34;5094222;28;20473;-64
2021/11/23 07:27:19;;;;;;;16.70;13.75;;;;;;;9.23;79.49;96559.88;5095599;28;20016;-69
2021/11/23 07:29:45;;;;;;;18.38;13.68;;;;;;;9.26;79.36;96562.38;5095631;28;20024;-65
2021/11/23 07:32:11;;;;;;;17.60;14.20;;;;;;;9.25;79.45;96565.03;5095404;28;20478;-62
2021/11/23 07:34:38;;;;;;;18.73;14.77;;;;;;;9.24;79.21;96574.63;5095416;28;20023;-66
2021/11/23 07:37:04;;;;;;;20.45;16.38;;;;;;;9.27;78.50;96571.06;5095392;28;20016;-65
2021/11/23 07:39:30;;;;;;;20.15;16.40;;;;;;;9.31;77.55;96565.72;5095311;28;20024;-64
2021/11/23 07:41:57;;;;;;;18.20;16.25;;;;;;;9.34;77.29;96568.19;5095367;28;20559;-64
2021/11/23 07:44:22;;;;;;;18.65;15.98;;;;;;;9.41;76.97;96571.47;5095392;28;20128;-64
2021/11/23 07:46:48;;;;;;;18.60;15.40;;;;;;;9.40;76.90;96561.94;5095360;28;20047;-64
2021/11/23 07:49:14;;;;;;;21.08;15.25;;;;;;;9.55;76.62;96578.84;5095104;28;20070;-65
2021/11/23 07:51:40;;;;;;;22.25;15.25;;;;;;;9.62;76.31;96579.50;5095077;28;20119;-68
2021/11/23 07:54:06;;;;;;;22.02;15.20;;;;;;;9.69;76.96;96583.59;5095141;28;20016;-69
2021/11/23 07:56:32;;;;;;;19.90;14.55;;;;;;;9.77;77.20;96585.97;5095008;28;20343;-66
2021/11/23 07:58:58;;;;;;;19.83;14.27;;;;;;;9.84;76.96;96581.34;5095040;28;20481;-69
2021/11/23 08:01:24;;;;;;;22.48;14.65;;;;;;;9.94;76.99;96579.31;5095009;28;20059;-63
2021/11/23 08:03:50;;;;;;;19.30;14.15;;;;;;;10.03;76.53;96583.34;5094916;28;20029;-66
2021/11/23 08:06:16;;;;;;;19.50;15.98;;;;;;;10.16;76.68;96587.25;5094839;28;20027;-64
2021/11/23 08:08:42;;;;;;;19.67;14.05;;;;;;;10.26;76.77;96582.53;5094791;28;20028;-63
2021/11/23 08:11:08;;;;;;;19.77;14.38;;;;;;;10.35;78.02;96586.56;5094679;28;20035;-65
2021/11/23 08:13:34;;;;;;;16.40;13.43;;;;;;;10.44;78.23;96596.69;5094628;28;20024;-66
2021/11/23 08:16:03;;;;;;;12.63;10.02;;;;;;;10.56;77.72;96600.66;5094728;28;20024;-66
2021/11/23 08:18:30;;;;;;;12.15;9.38;;;;;;;10.60;76.48;96598.78;5094627;28;20032;-66
2021/11/23 08:20:55;;;;;;;11.48;9.52;;;;;;;10.68;77.79;96601.09;5094484;28;20051;-69
2021/11/23 08:23:21;;;;;;;10.77;7.57;;;;;;;10.71;75.79;96599.22;5094550;28;20028;-66
2021/11/23 08:25:47;;;;;;;10.95;7.80;;;;;;;10.71;75.13;96604.47;5094425;28;20139;-68
2021/11/23 08:28:13;;;;;;;10.75;7.88;;;;;;;10.82;74.65;96604.06;5094307;28;20024;-63
2021/11/23 08:30:39;;;;;;;10.85;7.40;;;;;;;10.90;74.23;96610.75;5094331;28;20043;-63
2021/11/23 08:33:05;;;;;;;15.43;8.32;;;;;;;10.85;73.16;96608.31;5094418;28;20031;-64
2021/11/23 08:35:31;;;;;;;10.35;7.32;;;;;;;10.85;73.20;96608.31;5093985;28;20103;-64
2021/11/23 08:37:57;;;;;;;10.80;7.57;;;;;;;10.83;73.49;96610.13;5094198;28;20154;-63
2021/11/23 08:40:23;;;;;;;9.95;7.63;;;;;;;10.85;73.87;96606.56;5094157;28;20111;-63
2021/11/23 08:42:51;;;;;;;8.63;6.97;;;;;;;10.90;74.48;96610.75;5094151;28;20105;-61
2021/11/23 08:45:17;;;;;;;10.52;7.72;;;;;;;10.94;73.84;96609.72;5094146;28;20473;-68
2021/11/23 08:47:43;;;;;;;9.20;7.40;;;;;;;11.02;73.40;96612.06;5094139;28;20032;-63
2021/11/23 08:50:10;;;;;;;9.73;6.97;;;;;;;11.05;72.82;96612.78;5093943;28;20027;-66
2021/11/23 08:52:36;;;;;;;12.05;7.45;;;;;;;11.09;72.71;96616.13;5093987;28;20036;-65
2021/11/23 08:55:04;;;;;;;10.18;7.57;;;;;;;11.11;73.24;96606.47;5093927;28;20024;-66
2021/11/23 08:57:30;;;;;;;10.65;7.68;;;;;;;11.14;73.27;96601.13;5094009;28;20162;-66
2021/11/23 09:00:12;;;;;;;8.60;7.30;;;;;;;11.14;72.36;96601.13;5093867;28;20094;-62
2021/11/23 09:02:40;;;;;;;8.85;7.45;;;;;;;11.17;72.29;96592.28;5093839;28;20023;-63
2021/11/23 09:05:10;;;;;;;8.98;7.40;;;;;;;11.15;72.38;96592.34;5093835;28;20027;-63
2021/11/23 09:07:37;;;;;;;;;;;;;;;11.20;71.89;96592.16;5094200;28;20032;-68
2021/11/23 09:10:04;;;;;;;10.75;7.50;;;;;;;11.19;72.50;96593.06;5093665;28;19919;-63
2021/11/23 09:12:29;;;;;;;10.07;7.78;;;;;;;11.26;71.73;96594.53;5093608;28;20036;-66
2021/11/23 09:14:56;;;;;;;12.18;7.60;;;;;;;11.27;72.17;96587.53;5093496;28;20493;-64
2021/11/23 09:17:22;;;;;;;9.95;7.90;;;;;;;11.38;71.97;96586.19;5093576;28;20410;-64
2021/11/23 09:19:47;;;;;;;9.45;7.43;;;;;;;11.44;71.28;96579.00;5093349;28;20494;-62
2021/11/23 09:22:13;;;;;;;11.52;7.25;;;;;;;11.59;72.31;96582.75;5093601;28;20478;-64
2021/11/23 09:24:39;;;;;;;8.80;7.88;;;;;;;11.78;71.56;96581.97;5093405;28;20038;-63
2021/11/23 09:27:05;;;;;;;8.45;7.30;;;;;;;11.90;70.57;96580.59;5093437;28;20024;-65
2021/11/23 09:29:30;;;;;;;10.82;7.93;;;;;;;12.01;70.41;96580.97;5093418;28;20028;-65
2021/11/23 09:31:57;;;;;;;14.50;7.72;;;;;;;12.09;69.82;96578.91;5093330;28;20082;-67
2021/11/23 09:34:24;;;;;;;11.45;7.82;;;;;;;12.21;68.50;96580.16;5093367;28;20028;-65
2021/11/23 09:36:52;;;;;;;10.57;7.57;;;;;;;12.24;68.17;96577.41;5093320;28;20102;-65
2021/11/23 09:39:18;;;;;;;9.73;7.05;;;;;;;12.30;68.58;96588.53;5093232;28;20394;-63
2021/11/23 09:41:44;;;;;;;9.07;7.15;;;;;;;12.37;68.45;96587.31;5093318;28;20073;-64
2021/11/23 09:44:09;;;;;;;9.25;7.78;;;;;;;12.42;66.83;96589.75;5093199;28;20478;-68
2021/11/23 09:46:38;;;;;;;8.85;7.53;;;;;;;12.53;67.29;96584.03;5093200;28;20080;-64
2021/11/23 09:49:05;;;;;;;10.23;7.10;;;;;;;12.67;66.25;96584.25;5092296;28;20505;-64
2021/11/23 09:51:33;;;;;;;8.52;7.63;;;;;;;12.75;65.64;96584.75;5092999;28;20028;-67
2021/11/23 09:54:03;;;;;;;9.57;7.40;;;;;;;12.68;64.48;96588.59;5093113;28;20026;-66
2021/11/23 09:56:30;;;;;;;9.82;7.30;;;;;;;12.71;65.95;96584.97;5093161;28;20024;-69
2021/11/23 09:58:57;;;;;;;10.73;8.13;;;;;;;12.72;66.08;96587.53;5093135;28;20046;-66
2021/11/23 10:01:45;;;;;;;9.32;7.82;;;;;;;12.78;64.81;96591.63;5092950;28;20038;-66
2021/11/23 10:04:11;;;;;;;10.48;8.32;;;;;;;12.63;65.05;96586.19;5093094;28;20431;-65
2021/11/23 10:06:52;;;;;;;10.52;8.02;;;;;;;12.59;65.45;96589.00;5092966;28;20115;-67
2021/11/23 10:09:26;;;;;;;11.82;7.22;;;;;;;12.49;65.44;96584.16;5093183;28;20110;-66
2021/11/23 10:11:51;;;;;;;10.50;8.30;;;;;;;12.48;65.60;96579.84;5092989;28;20381;-64
2021/11/23 10:14:17;;;;;;;12.38;8.05;;;;;;;12.42;66.15;96587.13;5092976;28;20021;-65
2021/11/23 10:16:47;;;;;;;11.10;8.57;;;;;;;12.35;66.29;96587.44;5092814;28;20024;-66
2021/11/23 10:19:15;;;;;;;11.40;8.37;;;;;;;12.40;66.23;96591.59;5092928;28;20028;-69
2021/11/23 10:21:49;;;;;;;9.93;7.70;;;;;;;12.41;66.03;96591.53;5092721;28;20044;-69
2021/11/23 10:24:16;;;;;;;10.07;8.18;;;;;;;12.40;65.86;96600.31;5092806;28;20024;-66
2021/11/23 10:26:43;;;;;;;13.98;9.02;;;;;;;12.25;65.91;96594.84;5092891;28;20024;-65
2021/11/23 10:29:09;;;;;;;11.88;8.45;;;;;;;12.11;66.13;96605.06;5092761;28;20034;-65
2021/11/23 10:31:41;;;;;;;11.75;9.02;;;;;;;11.82;66.86;96604.50;5092659;28;20028;-69
2021/11/23 10:34:14;;;;;;;11.15;9.02;;;;;;;11.67;67.48;96599.00;5092722;28;20028;-65
2021/11/23 10:36:46;;;;;;;15.05;10.10;;;;;;;11.56;67.61;96599.44;5092872;28;20024;-64
2021/11/23 10:39:24;;;;;;;12.50;9.23;;;;;;;11.44;68.08;96603.41;5092839;28;20023;-63
2021/11/23 10:41:54;;;;;;;15.57;10.40;;;;;;;11.34;68.77;96596.84;5092785;28;20048;-66
2021/11/23 10:44:21;;;;;;;13.63;9.93;;;;;;;11.30;69.07;96590.03;5092586;28;20036;-63
2021/11/23 10:47:00;;;;;;;12.75;9.30;;;;;;;11.30;69.33;96590.03;5092656;28;20031;-62
2021/11/23 10:49:31;;;;;;;11.98;9.70;;;;;;;11.27;69.41;96595.38;5092790;28;20493;-63
2021/11/23 10:51:58;;;;;;;13.43;9.32;;;;;;;11.36;68.81;96581.91;5092504;28;20028;-65
2021/11/23 10:54:24;;;;;;;12.77;9.75;;;;;;;11.33;68.60;96585.53;5092513;28;20508;-63
2021/11/23 10:57:11;;;;;;;13.80;9.30;;;;;;;11.31;69.02;96574.25;5092476;28;20065;-65
2021/11/23 10:59:39;;;;;;;10.98;9.05;;;;;;;11.32;68.66;96575.94;5094217;28;20064;-64
2021/11/23 11:02:09;;;;;;;10.48;9.00;;;;;;;11.36;69.06;96582.78;5096035;28;20038;-66
2021/11/23 11:04:36;;;;;;;11.93;9.63;;;;;;;11.37;68.42;96578.38;5096116;28;20024;-67
2021/11/23 11:07:04;;;;;;;12.70;9.82;;;;;;;11.42;68.42;96578.19;5096038;28;20245;-63
2021/11/23 11:09:31;;;;;;;11.55;9.52;;;;;;;11.40;67.33;96574.78;5095911;28;20028;-62
2021/11/23 11:11:57;;;;;;;12.73;10.05;;;;;;;11.34;67.39;96575.88;5095752;28;20374;-67
2021/11/23 11:14:25;;;;;;;17.05;11.43;;;;;;;11.34;67.84;96574.13;5095899;28;20035;-66
2021/11/23 11:16:50;;;;;;;16.58;10.98;;;;;;;11.34;67.19;96583.72;5095790;28;20027;-62
2021/11/23 11:19:16;;;;;;;13.73;10.63;;;;;;;11.37;67.45;96573.13;5095943;28;20054;-67
2021/11/23 11:21:48;;;;;;;13.35;10.82;;;;;;;11.41;67.38;96572.09;5095629;28;20371;-66
2021/11/23 11:24:53;;;;;;;16.63;11.88;;;;;;;11.29;67.24;96581.31;5095878;28;20048;-66